Time;durP1;ratioP1;P1;durP2;ratioP2;P2;SDS_P1;SDS_P2;PMS_P1;PMS_P2;Temp;Humidity;BMP_temperature;BMP_pressure;BME280_temperature;BME280_humidity;BME280_pressure;Samples;Min_cycle;Max_cycle;Signal;HPM_P1;HPM_P2
2021/06/30 00:01:17;;;;;;;5.18;4.68;;;21.40;90.50;;;;;;4983437;28;20460;-72
2021/06/30 00:03:42;;;;;;;6.07;4.38;;;21.40;90.70;;;;;;4997526;28;20041;-71
2021/06/30 00:06:08;;;;;;;4.95;4.50;;;21.30;90.70;;;;;;4983418;28;20026;-72
2021/06/30 00:08:34;;;;;;;8.40;4.82;;;21.30;90.50;;;;;;4981765;28;20037;-72
2021/06/30 00:11:00;;;;;;;6.60;4.60;;;21.20;90.50;;;;;;4996692;28;20031;-72
2021/06/30 00:13:26;;;;;;;7.20;4.70;;;21.20;90.50;;;;;;4982120;28;20078;-71
2021/06/30 00:15:52;;;;;;;4.85;3.78;;;21.00;90.50;;;;;;4998167;28;20441;-72
2021/06/30 00:18:20;;;;;;;4.53;4.03;;;21.00;90.50;;;;;;4983323;28;20436;-72
2021/06/30 00:20:46;;;;;;;5.80;3.92;;;20.90;90.20;;;;;;4981837;28;20068;-72
2021/06/30 00:23:11;;;;;;;4.90;4.03;;;20.70;90.10;;;;;;4982373;28;20137;-72
2021/06/30 00:25:37;;;;;;;6.38;4.55;;;20.50;90.30;;;;;;4981634;28;20034;-72
2021/06/30 00:28:02;;;;;;;14.10;4.38;;;20.40;90.40;;;;;;4980728;28;20026;-72
2021/06/30 00:30:28;;;;;;;8.93;4.15;;;20.30;90.50;;;;;;4981438;28;20434;-71
2021/06/30 00:32:54;;;;;;;5.93;3.85;;;20.20;90.50;;;;;;4981715;28;20039;-84
2021/06/30 00:35:19;;;;;;;5.15;4.65;;;20.10;90.60;;;;;;4983089;28;20069;-84
2021/06/30 00:37:45;;;;;;;6.20;5.22;;;20.10;90.60;;;;;;4983000;28;20144;-84
2021/06/30 00:40:12;;;;;;;7.25;4.57;;;20.00;90.90;;;;;;4983919;28;20117;-83
2021/06/30 00:42:38;;;;;;;8.07;5.07;;;19.90;90.70;;;;;;4982961;28;20031;-84
2021/06/30 00:45:09;;;;;;;9.75;5.45;;;19.70;91.00;;;;;;4996735;28;20026;-84
2021/06/30 00:47:34;;;;;;;8.25;5.38;;;19.50;91.20;;;;;;4983145;28;20394;-84
2021/06/30 00:50:02;;;;;;;9.20;4.25;;;19.40;91.50;;;;;;4980997;28;20348;-83
2021/06/30 00:52:28;;;;;;;13.60;5.03;;;19.30;91.80;;;;;;4982661;28;20033;-83
2021/06/30 00:54:54;;;;;;;10.10;5.10;;;19.10;91.90;;;;;;4982580;28;20037;-83
2021/06/30 00:57:21;;;;;;;5.57;4.18;;;19.00;92.20;;;;;;4982347;28;20030;-83
2021/06/30 00:59:47;;;;;;;4.22;3.88;;;19.00;92.10;;;;;;4982877;28;20026;-83
2021/06/30 01:02:13;;;;;;;3.90;3.60;;;19.00;92.20;;;;;;4996707;28;20197;-84
2021/06/30 01:04:38;;;;;;;6.22;4.30;;;19.00;92.10;;;;;;4981720;28;20042;-83
2021/06/30 01:07:04;;;;;;;13.43;4.13;;;19.10;92.20;;;;;;4982153;28;20035;-83
2021/06/30 01:09:30;;;;;;;10.18;4.10;;;19.30;92.00;;;;;;4983039;28;20026;-84
2021/06/30 01:11:58;;;;;;;4.28;3.60;;;19.50;91.70;;;;;;4996186;28;20030;-83
2021/06/30 01:14:26;;;;;;;5.10;4.05;;;19.70;91.30;;;;;;4982845;28;20034;-83
2021/06/30 01:16:52;;;;;;;6.28;3.90;;;19.80;90.90;;;;;;4981752;28;20324;-83
2021/06/30 01:19:19;;;;;;;6.97;4.03;;;19.70;90.70;;;;;;4981764;28;20041;-83
2021/06/30 01:21:45;;;;;;;7.07;4.95;;;19.60;90.70;;;;;;4980433;28;20536;-83
2021/06/30 01:24:10;;;;;;;12.13;4.43;;;19.50;90.90;;;;;;4997133;28;20065;-83
2021/06/30 01:26:36;;;;;;;4.38;3.97;;;19.50;91.00;;;;;;4979696;28;20038;-83
2021/06/30 01:29:01;;;;;;;5.15;4.25;;;19.50;91.00;;;;;;4982896;28;20037;-84
2021/06/30 01:31:27;;;;;;;6.50;4.85;;;19.60;90.90;;;;;;4982261;28;20034;-83
2021/06/30 01:33:52;;;;;;;7.95;4.10;;;19.70;90.70;;;;;;4982500;28;20053;-84
2021/06/30 01:36:18;;;;;;;3.63;3.33;;;19.70;90.60;;;;;;4980760;28;20049;-83
2021/06/30 01:38:43;;;;;;;4.82;4.32;;;19.80;90.60;;;;;;4981094;28;20180;-83
2021/06/30 01:41:11;;;;;;;6.68;4.60;;;19.90;90.50;;;;;;4981091;28;20453;-83
2021/06/30 01:43:37;;;;;;;5.75;5.13;;;19.90;90.30;;;;;;4980639;28;20034;-83
2021/06/30 01:46:02;;;;;;;7.03;4.47;;;20.00;90.20;;;;;;4981101;28;20434;-83
2021/06/30 01:48:28;;;;;;;6.70;5.10;;;20.10;90.10;;;;;;4996615;28;20034;-83
2021/06/30 01:50:54;;;;;;;7.00;5.32;;;20.20;89.80;;;;;;4981365;28;20026;-83
2021/06/30 01:53:20;;;;;;;10.65;5.45;;;20.10;89.60;;;;;;4981764;28;20061;-83
2021/06/30 01:55:46;;;;;;;4.97;4.55;;;20.10;89.60;;;;;;4981964;28;20045;-83
2021/06/30 01:58:15;;;;;;;6.80;4.53;;;20.20;89.50;;;;;;4980492;28;20039;-83
2021/06/30 02:00:40;;;;;;;11.88;5.00;;;20.20;89.50;;;;;;4996021;28;20037;-83
2021/06/30 02:03:06;;;;;;;11.07;4.88;;;20.10;89.40;;;;;;4981852;28;20034;-84
2021/06/30 02:05:31;;;;;;;7.43;3.92;;;20.20;89.70;;;;;;4981099;28;20525;-83
2021/06/30 02:08:01;;;;;;;9.15;4.15;;;20.20;90.10;;;;;;4981229;28;20027;-83
2021/06/30 02:10:28;;;;;;;7.80;3.60;;;20.10;90.20;;;;;;4981122;28;20034;-83
2021/06/30 02:12:55;;;;;;;6.22;2.80;;;20.10;90.60;;;;;;4982395;28;20125;-83
2021/06/30 02:15:24;;;;;;;4.88;2.65;;;20.00;90.60;;;;;;4980676;28;20034;-83
2021/06/30 02:17:50;;;;;;;6.43;3.53;;;19.90;90.80;;;;;;4979461;28;20092;-83
2021/06/30 02:20:16;;;;;;;6.90;3.30;;;19.90;90.70;;;;;;4997199;28;20042;-83
2021/06/30 02:22:43;;;;;;;7.75;2.92;;;19.80;91.00;;;;;;4981026;28;20030;-83
2021/06/30 02:25:11;;;;;;;5.72;2.58;;;19.80;91.20;;;;;;4980210;28;20034;-83
2021/06/30 02:27:37;;;;;;;4.97;2.30;;;19.70;91.20;;;;;;4981015;28;20030;-83
2021/06/30 02:30:10;;;;;;;5.13;2.78;;;19.80;91.20;;;;;;4995544;28;20026;-83
2021/06/30 02:32:36;;;;;;;6.50;1.60;;;19.70;91.10;;;;;;4981355;28;20034;-83
2021/06/30 02:35:04;;;;;;;3.55;2.38;;;19.80;91.20;;;;;;4980009;28;20033;-83
2021/06/30 02:37:30;;;;;;;2.70;1.73;;;19.70;91.30;;;;;;4981588;28;20114;-83
2021/06/30 02:39:55;;;;;;;7.15;2.00;;;19.70;91.40;;;;;;4979732;28;20114;-83
2021/06/30 02:42:21;;;;;;;3.40;1.25;;;19.80;91.20;;;;;;4987006;28;20022;-83
2021/06/30 02:44:46;;;;;;;3.67;1.63;;;19.80;91.00;;;;;;4980629;28;20101;-84
2021/06/30 02:47:12;;;;;;;4.55;1.30;;;19.80;91.10;;;;;;4980469;28;20102;-83
2021/06/30 02:49:37;;;;;;;3.20;1.25;;;19.70;91.20;;;;;;4979223;28;20039;-83
2021/06/30 02:52:03;;;;;;;1.90;1.00;;;19.70;91.10;;;;;;4979958;28;20062;-83
2021/06/30 02:54:29;;;;;;;2.47;0.98;;;19.60;91.10;;;;;;4980030;28;20026;-84
2021/06/30 02:56:54;;;;;;;1.85;1.25;;;19.50;91.40;;;;;;4979107;28;20030;-83
2021/06/30 02:59:20;;;;;;;4.32;1.23;;;19.40;91.30;;;;;;4981177;28;20069;-83
2021/06/30 03:01:45;;;;;;;1.98;0.88;;;19.50;91.20;;;;;;4979293;28;20027;-83
2021/06/30 03:04:11;;;;;;;1.55;0.98;;;19.50;91.30;;;;;;4981006;28;20045;-83
2021/06/30 03:06:36;;;;;;;4.10;0.98;;;19.70;91.10;;;;;;4978703;28;20292;-83
2021/06/30 03:09:02;;;;;;;5.78;0.93;;;19.70;91.00;;;;;;4980060;28;20037;-83
2021/06/30 03:11:27;;;;;;;5.10;1.70;;;19.70;91.00;;;;;;4980289;28;20031;-83
2021/06/30 03:13:53;;;;;;;3.45;1.08;;;19.60;91.00;;;;;;4981067;28;20109;-83
2021/06/30 03:16:18;;;;;;;5.45;1.35;;;19.70;91.10;;;;;;4980634;28;20054;-83
2021/06/30 03:18:44;;;;;;;1.50;0.98;;;19.60;91.10;;;;;;4980170;28;20149;-84
2021/06/30 03:21:10;;;;;;;2.67;1.02;;;19.60;91.10;;;;;;4979933;28;20035;-83
2021/06/30 03:23:36;;;;;;;3.78;1.10;;;19.60;91.10;;;;;;4979119;28;20027;-83
2021/06/30 03:26:02;;;;;;;2.40;0.90;;;19.60;91.20;;;;;;4980546;28;20030;-83
2021/06/30 03:28:27;;;;;;;4.00;1.00;;;19.40;91.40;;;;;;4980096;28;20032;-83
2021/06/30 03:30:53;;;;;;;2.85;1.45;;;19.20;91.90;;;;;;4980410;28;20246;-83
2021/06/30 03:33:18;;;;;;;1.52;1.00;;;19.10;92.00;;;;;;4994966;28;20387;-84
2021/06/30 03:35:44;;;;;;;3.03;1.10;;;19.10;92.20;;;;;;4978609;28;20058;-83
2021/06/30 03:38:09;;;;;;;3.35;1.20;;;19.00;92.30;;;;;;4978783;28;20084;-83
2021/06/30 03:40:35;;;;;;;3.40;1.40;;;18.90;92.30;;;;;;4979921;28;20446;-83
2021/06/30 03:43:00;;;;;;;3.80;1.48;;;18.90;92.40;;;;;;4994859;28;20031;-83
2021/06/30 03:45:26;;;;;;;2.15;1.75;;;19.10;92.30;;;;;;4995469;28;20031;-83
2021/06/30 03:47:51;;;;;;;5.93;1.83;;;19.20;92.10;;;;;;4979304;28;20031;-83
2021/06/30 03:50:17;;;;;;;1.95;0.77;;;19.30;91.90;;;;;;4978430;28;20038;-83
2021/06/30 03:52:43;;;;;;;1.88;1.20;;;19.30;91.90;;;;;;4992833;28;20045;-83
2021/06/30 03:55:08;;;;;;;3.53;1.63;;;19.40;91.70;;;;;;4980096;28;20026;-83
2021/06/30 03:57:35;;;;;;;5.43;1.77;;;19.50;91.50;;;;;;4980055;28;20038;-83
2021/06/30 04:00:02;;;;;;;2.90;1.85;;;19.60;91.40;;;;;;4979080;28;20405;-83
2021/06/30 04:02:28;;;;;;;7.03;2.38;;;19.70;91.30;;;;;;4978518;28;20027;-83
2021/06/30 04:04:53;;;;;;;3.25;1.85;;;19.70;91.10;;;;;;4978758;28;20034;-83
2021/06/30 04:07:19;;;;;;;4.15;1.55;;;19.80;90.90;;;;;;4982593;28;20078;-82
2021/06/30 04:09:44;;;;;;;5.40;1.63;;;19.80;90.80;;;;;;4988442;28;20406;-83
2021/06/30 04:12:10;;;;;;;1.80;1.45;;;19.80;90.80;;;;;;4984893;28;20044;-83
2021/06/30 04:14:35;;;;;;;6.85;1.48;;;19.80;90.70;;;;;;4981554;28;20408;-83
2021/06/30 04:17:01;;;;;;;1.92;1.50;;;19.80;90.70;;;;;;4983921;28;20034;-83
2021/06/30 04:19:26;;;;;;;4.40;1.83;;;19.90;90.80;;;;;;4979921;28;20085;-83
2021/06/30 04:21:52;;;;;;;3.92;1.58;;;19.80;90.80;;;;;;4997676;28;20133;-80
2021/06/30 04:24:17;;;;;;;7.20;1.98;;;19.80;90.70;;;;;;4981088;28;20084;-82
2021/06/30 04:26:43;;;;;;;4.93;1.60;;;19.90;90.60;;;;;;4983673;28;20042;-82
2021/06/30 04:29:09;;;;;;;4.68;1.80;;;19.90;90.60;;;;;;4982579;28;20045;-81
2021/06/30 04:31:35;;;;;;;2.05;1.63;;;19.90;90.50;;;;;;4983607;28;20081;-81
2021/06/30 04:34:00;;;;;;;2.10;1.90;;;19.90;90.60;;;;;;4982904;28;20038;-79
2021/06/30 04:36:26;;;;;;;5.15;1.83;;;19.80;90.60;;;;;;4982872;28;20031;-79
2021/06/30 04:38:52;;;;;;;2.50;2.20;;;19.80;90.60;;;;;;4981371;28;20567;-79
2021/06/30 04:41:17;;;;;;;8.65;1.73;;;19.80;90.50;;;;;;4981726;28;20038;-79
2021/06/30 04:43:43;;;;;;;2.25;1.23;;;19.80;90.60;;;;;;4997583;28;20031;-79
2021/06/30 04:46:08;;;;;;;2.13;1.80;;;19.80;90.80;;;;;;4997512;28;20486;-79
2021/06/30 04:48:34;;;;;;;2.78;1.98;;;19.80;90.80;;;;;;4982496;28;20033;-79
2021/06/30 04:51:01;;;;;;;3.83;1.73;;;19.70;91.10;;;;;;4981352;28;20386;-80
2021/06/30 04:53:27;;;;;;;4.40;1.95;;;19.60;91.10;;;;;;4996109;28;20034;-80
2021/06/30 04:55:53;;;;;;;2.15;1.70;;;19.60;91.20;;;;;;4981965;28;20045;-80
2021/06/30 04:58:19;;;;;;;3.17;2.22;;;19.50;91.00;;;;;;4981866;28;20572;-80
2021/06/30 05:00:44;;;;;;;2.83;2.00;;;19.60;91.20;;;;;;4981514;28;20095;-80
2021/06/30 05:03:10;;;;;;;9.07;3.10;;;19.60;91.30;;;;;;4982518;28;20117;-80
2021/06/30 05:05:36;;;;;;;5.68;3.25;;;19.50;91.30;;;;;;4982105;28;20083;-82
2021/06/30 05:08:02;;;;;;;5.85;3.05;;;19.50;91.30;;;;;;4982017;28;20015;-82
2021/06/30 05:10:28;;;;;;;3.38;2.38;;;19.60;91.40;;;;;;4981497;28;20030;-80
2021/06/30 05:12:54;;;;;;;9.00;3.45;;;19.60;91.50;;;;;;4979645;28;20089;-81
2021/06/30 05:15:22;;;;;;;6.32;3.28;;;19.60;91.50;;;;;;4980495;28;20085;-82
2021/06/30 05:17:48;;;;;;;4.68;3.28;;;19.60;91.40;;;;;;4984191;28;20022;-82
2021/06/30 05:20:13;;;;;;;6.68;3.42;;;19.60;91.50;;;;;;4980917;28;20117;-81
2021/06/30 05:22:39;;;;;;;7.95;4.05;;;19.60;91.40;;;;;;4980736;28;20566;-82
2021/06/30 05:25:05;;;;;;;4.93;3.45;;;19.60;91.40;;;;;;4980680;28;20037;-82
2021/06/30 05:27:30;;;;;;;7.70;3.65;;;19.60;91.50;;;;;;4980419;28;20058;-82
2021/06/30 05:29:55;;;;;;;6.70;2.97;;;19.60;91.50;;;;;;4979438;28;20038;-82
2021/06/30 05:32:21;;;;;;;6.65;3.10;;;19.60;91.50;;;;;;4980629;28;20031;-82
2021/06/30 05:34:46;;;;;;;6.50;3.03;;;19.60;91.50;;;;;;4980388;28;20041;-82
2021/06/30 05:37:12;;;;;;;7.22;3.33;;;19.50;91.60;;;;;;4980989;28;20149;-82
2021/06/30 05:39:37;;;;;;;6.88;3.13;;;19.50;91.70;;;;;;4982379;28;20525;-82
2021/06/30 05:42:03;;;;;;;17.13;4.45;;;19.50;91.70;;;;;;4981134;28;20043;-82
2021/06/30 05:44:29;;;;;;;7.28;4.40;;;19.50;91.70;;;;;;4980847;28;20053;-81
2021/06/30 05:46:54;;;;;;;16.65;4.85;;;19.60;91.90;;;;;;4981749;28;20054;-82
2021/06/30 05:49:19;;;;;;;12.27;5.15;;;19.60;91.70;;;;;;4981606;28;20049;-82
2021/06/30 05:51:45;;;;;;;5.72;4.72;;;19.60;91.80;;;;;;4996224;28;20027;-82
2021/06/30 05:54:11;;;;;;;16.05;5.65;;;19.60;92.00;;;;;;4978762;28;20505;-81
2021/06/30 05:56:38;;;;;;;11.50;6.30;;;19.50;91.90;;;;;;4981346;28;20031;-82
2021/06/30 05:59:04;;;;;;;10.07;4.47;;;19.60;91.80;;;;;;4981157;28;20121;-81
2021/06/30 06:01:30;;;;;;;9.52;5.68;;;19.60;91.70;;;;;;4979866;28;20139;-82
2021/06/30 06:03:56;;;;;;;15.65;5.30;;;19.70;91.80;;;;;;4995824;28;20501;-82
2021/06/30 06:06:21;;;;;;;14.65;5.53;;;19.70;91.80;;;;;;4981262;28;20482;-82
2021/06/30 06:08:47;;;;;;;11.05;5.75;;;19.70;91.70;;;;;;4980361;28;20025;-82
2021/06/30 06:11:12;;;;;;;26.23;7.97;;;19.70;91.60;;;;;;4980814;28;20030;-82
2021/06/30 06:13:40;;;;;;;18.45;7.47;;;19.70;91.60;;;;;;4981686;28;20443;-82
2021/06/30 06:16:07;;;;;;;14.18;7.65;;;19.70;91.60;;;;;;4979905;28;20590;-81
2021/06/30 06:18:33;;;;;;;21.35;7.20;;;19.80;91.60;;;;;;4977630;28;20037;-86
2021/06/30 06:20:59;;;;;;;14.27;8.48;;;19.80;91.60;;;;;;4994389;28;20022;-83
2021/06/30 06:23:24;;;;;;;17.88;8.65;;;19.80;91.60;;;;;;4980932;28;20076;-82
2021/06/30 06:25:50;;;;;;;17.65;8.07;;;19.70;91.60;;;;;;4978953;28;20568;-83
2021/06/30 06:28:15;;;;;;;13.98;7.95;;;19.70;91.50;;;;;;4994228;28;20069;-82
2021/06/30 06:30:41;;;;;;;13.68;7.72;;;19.70;91.60;;;;;;4979267;28;20026;-82
2021/06/30 06:33:06;;;;;;;20.70;7.57;;;19.70;91.60;;;;;;4980198;28;20086;-83
2021/06/30 06:35:32;;;;;;;13.45;6.55;;;19.70;91.60;;;;;;4995932;28;20038;-82
2021/06/30 06:37:58;;;;;;;10.52;6.22;;;19.60;91.60;;;;;;4979960;28;20022;-82
2021/06/30 06:40:26;;;;;;;7.55;5.45;;;19.60;91.80;;;;;;4980246;28;20027;-82
2021/06/30 06:42:53;;;;;;;10.57;5.72;;;19.60;91.70;;;;;;4980355;28;20409;-83
2021/06/30 06:45:18;;;;;;;10.07;4.18;;;19.60;91.60;;;;;;4980221;28;20023;-82
2021/06/30 06:47:44;;;;;;;6.82;3.53;;;19.70;91.60;;;;;;4979641;28;20109;-83
2021/06/30 06:50:10;;;;;;;7.82;3.55;;;19.70;91.70;;;;;;4980172;28;20062;-85
2021/06/30 06:52:35;;;;;;;12.05;3.33;;;19.70;91.70;;;;;;4980306;28;20034;-84
2021/06/30 06:55:01;;;;;;;10.20;2.72;;;19.70;91.60;;;;;;4979734;28;20034;-85
2021/06/30 06:57:26;;;;;;;6.63;2.88;;;19.70;91.60;;;;;;4981018;28;20030;-87
2021/06/30 06:59:52;;;;;;;4.90;2.42;;;19.70;91.50;;;;;;4980319;28;20026;-86
2021/06/30 07:02:17;;;;;;;3.83;2.20;;;19.70;91.40;;;;;;4980380;28;20031;-86
2021/06/30 07:04:43;;;;;;;4.32;3.15;;;19.70;91.40;;;;;;4980549;28;20470;-85
2021/06/30 07:07:09;;;;;;;3.05;2.58;;;19.70;91.50;;;;;;4976488;28;20138;-84
2021/06/30 07:09:34;;;;;;;6.40;3.20;;;19.60;91.50;;;;;;4979622;28;20101;-83
2021/06/30 07:12:00;;;;;;;7.35;3.10;;;19.60;91.60;;;;;;4979335;28;20084;-84
2021/06/30 07:14:25;;;;;;;5.32;3.83;;;19.60;91.70;;;;;;4980155;28;20027;-80
2021/06/30 07:16:50;;;;;;;4.25;3.08;;;19.50;91.70;;;;;;4979543;28;20857;-81
2021/06/30 07:19:16;;;;;;;14.45;4.10;;;19.60;91.80;;;;;;4980893;28;20102;-81
2021/06/30 07:21:42;;;;;;;6.05;3.70;;;19.50;91.90;;;;;;4979463;28;20168;-82
2021/06/30 07:24:07;;;;;;;12.43;3.90;;;19.50;92.00;;;;;;4978911;28;20088;-82
2021/06/30 07:26:33;;;;;;;12.70;4.80;;;19.40;92.20;;;;;;4979557;28;20019;-81
2021/06/30 07:28:59;;;;;;;9.90;3.72;;;19.40;92.50;;;;;;4994778;28;20023;-82
2021/06/30 07:31:24;;;;;;;11.95;3.95;;;19.30;92.30;;;;;;4980264;28;20483;-82
2021/06/30 07:33:50;;;;;;;10.68;4.45;;;19.30;92.30;;;;;;4979064;28;20077;-82
2021/06/30 07:36:16;;;;;;;12.95;4.88;;;19.30;92.50;;;;;;4980406;28;20046;-82
2021/06/30 07:38:43;;;;;;;7.65;4.13;;;19.30;92.50;;;;;;4979170;28;20485;-84
2021/06/30 07:41:09;;;;;;;20.80;5.97;;;19.20;92.60;;;;;;4983046;28;20050;-85
2021/06/30 07:43:34;;;;;;;13.63;5.22;;;19.20;92.70;;;;;;4983669;28;20042;-85
2021/06/30 07:46:00;;;;;;;47.53;6.65;;;19.10;92.70;;;;;;4983926;28;20080;-85
2021/06/30 07:48:25;;;;;;;20.00;5.72;;;19.10;92.80;;;;;;4999118;28;20027;-83
2021/06/30 07:50:51;;;;;;;24.95;6.10;;;19.10;92.90;;;;;;4983770;28;20023;-84
2021/06/30 07:53:16;;;;;;;27.38;6.28;;;19.00;92.90;;;;;;4983374;28;20615;-83
2021/06/30 07:55:42;;;;;;;11.63;4.88;;;19.00;93.00;;;;;;4998629;28;20043;-81
2021/06/30 07:58:08;;;;;;;8.40;5.03;;;19.00;93.10;;;;;;4982542;28;20486;-81
2021/06/30 08:00:33;;;;;;;11.90;5.45;;;19.00;93.00;;;;;;4983416;28;20594;-81
2021/06/30 08:02:59;;;;;;;14.80;5.30;;;19.00;93.20;;;;;;4984827;28;20049;-81
2021/06/30 08:05:25;;;;;;;15.45;6.07;;;18.90;93.30;;;;;;4981851;28;20063;-84
2021/06/30 08:07:51;;;;;;;7.55;4.32;;;18.90;93.50;;;;;;4984862;28;20082;-83
2021/06/30 08:10:16;;;;;;;11.10;6.00;;;18.90;93.40;;;;;;4981567;28;20035;-84
2021/06/30 08:12:42;;;;;;;13.80;5.28;;;18.90;93.60;;;;;;4985607;28;20014;-84
2021/06/30 08:15:09;;;;;;;12.55;5.43;;;18.90;93.70;;;;;;4984417;28;20034;-82
2021/06/30 08:17:34;;;;;;;12.00;5.65;;;18.80;93.80;;;;;;4998993;28;20031;-83
2021/06/30 08:20:00;;;;;;;11.82;4.85;;;18.80;93.90;;;;;;4984329;28;20030;-82
2021/06/30 08:22:26;;;;;;;18.10;7.00;;;18.80;93.80;;;;;;4985346;28;20379;-85
2021/06/30 08:24:51;;;;;;;10.23;5.55;;;18.80;93.90;;;;;;5002239;28;20046;-84
2021/06/30 08:27:19;;;;;;;19.70;6.72;;;18.70;94.00;;;;;;5000294;28;20027;-83
2021/06/30 08:29:45;;;;;;;13.40;5.55;;;18.70;94.20;;;;;;4987587;28;20073;-84
2021/06/30 08:32:10;;;;;;;24.60;5.25;;;18.70;94.20;;;;;;4987286;28;20035;-83
2021/06/30 08:34:36;;;;;;;15.07;5.88;;;18.70;94.10;;;;;;4984441;28;20122;-84
2021/06/30 08:37:05;;;;;;;8.63;4.85;;;18.80;94.10;;;;;;4985692;28;20037;-85
2021/06/30 08:39:31;;;;;;;9.35;5.43;;;18.70;94.00;;;;;;4984755;28;20051;-86
2021/06/30 08:41:56;;;;;;;6.65;4.95;;;18.60;94.10;;;;;;4999655;28;20065;-82
2021/06/30 08:44:22;;;;;;;8.90;5.43;;;18.50;94.40;;;;;;4986011;28;20046;-81
2021/06/30 08:46:48;;;;;;;7.82;5.38;;;18.50;94.40;;;;;;4986867;28;20105;-79
2021/06/30 08:49:15;;;;;;;8.23;5.30;;;18.40;94.60;;;;;;4983779;28;20031;-80
2021/06/30 08:51:44;;;;;;;8.70;5.47;;;18.30;94.50;;;;;;4989087;28;20064;-84
2021/06/30 08:54:11;;;;;;;8.70;4.82;;;18.20;94.80;;;;;;4993556;28;20030;-85
2021/06/30 08:56:37;;;;;;;8.00;5.50;;;18.20;94.60;;;;;;4983030;28;20102;-86
2021/06/30 08:59:03;;;;;;;6.43;5.25;;;18.20;94.90;;;;;;4980999;28;20105;-85
2021/06/30 09:01:30;;;;;;;9.75;5.40;;;18.20;94.80;;;;;;4985809;28;20030;-85
2021/06/30 09:03:56;;;;;;;7.78;5.57;;;18.20;94.80;;;;;;4981228;28;20494;-84
2021/06/30 09:06:27;;;;;;;8.27;5.18;;;18.20;94.90;;;;;;4981543;28;20034;-86
2021/06/30 09:08:52;;;;;;;7.63;6.30;;;18.20;94.90;;;;;;4993533;28;20050;-81
2021/06/30 09:11:20;;;;;;;9.25;6.43;;;18.20;94.80;;;;;;4984253;28;20105;-85
2021/06/30 09:13:47;;;;;;;9.98;5.80;;;18.10;94.90;;;;;;4999430;28;20038;-84
2021/06/30 09:16:12;;;;;;;9.82;4.68;;;18.10;94.90;;;;;;4982161;28;20050;-82
2021/06/30 09:18:40;;;;;;;6.47;4.82;;;18.10;95.00;;;;;;4982598;28;20022;-86
2021/06/30 09:21:17;;;;;;;16.55;6.10;;;18.00;95.10;;;;;;4985502;28;20037;-83
2021/06/30 09:24:06;;;;;;;9.07;5.70;;;18.00;95.20;;;;;;4984103;28;20031;-83
2021/06/30 09:26:49;;;;;;;10.05;4.85;;;17.90;95.30;;;;;;4983902;28;20023;-83
2021/06/30 09:29:15;;;;;;;12.55;5.93;;;17.90;95.30;;;;;;4993518;28;20378;-82
2021/06/30 09:31:46;;;;;;;6.30;4.65;;;17.80;95.60;;;;;;4987088;28;20027;-81
2021/06/30 09:34:12;;;;;;;10.52;3.70;;;17.80;95.40;;;;;;4985563;28;20049;-82
2021/06/30 09:37:06;;;;;;;5.88;3.80;;;17.70;95.30;;;;;;4986113;28;20482;-86
2021/06/30 09:39:38;;;;;;;6.50;3.95;;;17.70;95.60;;;;;;4984336;28;20041;-85
2021/06/30 09:42:12;;;;;;;6.32;4.38;;;17.70;95.80;;;;;;4988451;28;20474;-85
2021/06/30 09:44:39;;;;;;;3.65;3.35;;;17.60;95.60;;;;;;4996021;28;20053;-85
2021/06/30 09:47:06;;;;;;;4.70;4.28;;;17.50;95.80;;;;;;4988235;28;20105;-83
2021/06/30 09:49:33;;;;;;;6.35;4.50;;;17.50;95.80;;;;;;4998432;28;20433;-83
2021/06/30 09:52:06;;;;;;;8.38;4.93;;;17.70;95.90;;;;;;4986426;28;20200;-86
2021/06/30 09:54:32;;;;;;;6.60;4.65;;;17.80;95.80;;;;;;4986944;28;20397;-86
2021/06/30 09:57:01;;;;;;;5.80;4.72;;;17.80;95.80;;;;;;5000334;28;20105;-86
2021/06/30 09:59:29;;;;;;;9.07;5.45;;;17.90;95.60;;;;;;4983496;28;20053;-81
2021/06/30 10:02:01;;;;;;;8.00;4.53;;;18.00;95.50;;;;;;4995714;28;20046;-85
2021/06/30 10:04:42;;;;;;;6.50;4.97;;;18.10;95.50;;;;;;4981321;28;20031;-84
2021/06/30 10:07:11;;;;;;;5.00;4.32;;;18.20;95.40;;;;;;4992677;28;20486;-85
2021/06/30 10:09:37;;;;;;;6.15;4.88;;;18.30;95.30;;;;;;4980064;28;20505;-85
2021/06/30 10:12:09;;;;;;;9.18;6.88;;;18.30;95.10;;;;;;4981277;28;20397;-85
2021/06/30 10:14:36;;;;;;;8.65;5.15;;;18.40;95.20;;;;;;4994976;28;20074;-84
2021/06/30 10:17:02;;;;;;;8.77;4.50;;;18.40;95.10;;;;;;4980843;28;20537;-84
2021/06/30 10:19:29;;;;;;;9.90;5.40;;;18.50;95.00;;;;;;4981983;28;20065;-84
2021/06/30 10:21:54;;;;;;;5.63;3.88;;;18.50;95.20;;;;;;4979902;28;20128;-84
2021/06/30 10:24:21;;;;;;;8.40;4.70;;;18.60;94.80;;;;;;4995677;28;20053;-85
2021/06/30 10:26:48;;;;;;;15.02;6.32;;;18.70;94.70;;;;;;4979498;28;20034;-85
2021/06/30 10:29:15;;;;;;;9.88;6.35;;;18.70;94.50;;;;;;4979681;28;20124;-86
2021/06/30 10:31:42;;;;;;;9.60;5.70;;;18.70;94.40;;;;;;4980054;28;20114;-85
2021/06/30 10:34:10;;;;;;;14.90;6.38;;;18.70;94.50;;;;;;4980975;28;20034;-84
2021/06/30 10:36:42;;;;;;;8.93;5.70;;;18.70;94.50;;;;;;4980220;28;20490;-84
2021/06/30 10:39:08;;;;;;;11.88;6.47;;;18.70;94.60;;;;;;4978888;28;20058;-84
2021/06/30 10:41:41;;;;;;;7.88;5.07;;;18.60;94.60;;;;;;4985555;28;20109;-84
2021/06/30 10:44:16;;;;;;;12.70;6.25;;;18.50;94.50;;;;;;4994213;28;20391;-84
2021/06/30 10:46:43;;;;;;;8.63;5.65;;;18.50;94.50;;;;;;4980801;28;20524;-84
2021/06/30 10:49:22;;;;;;;19.00;7.30;;;18.60;94.50;;;;;;4992750;28;20038;-83
2021/06/30 10:51:54;;;;;;;13.63;6.45;;;18.60;94.60;;;;;;4979691;28;20028;-81
2021/06/30 10:54:45;;;;;;;10.60;5.60;;;18.60;94.50;;;;;;4980748;28;20023;-81
2021/06/30 10:57:20;;;;;;;8.98;6.28;;;18.50;94.60;;;;;;4980341;28;20494;-81
2021/06/30 11:00:01;;;;;;;14.93;6.53;;;18.50;94.60;;;;;;4979267;28;20053;-80
2021/06/30 11:02:32;;;;;;;8.77;5.60;;;18.50;94.70;;;;;;4979457;28;20026;-82
2021/06/30 11:05:17;;;;;;;8.68;5.80;;;18.40;94.70;;;;;;4980989;28;20038;-81
2021/06/30 11:07:44;;;;;;;7.90;5.60;;;18.40;94.80;;;;;;4979672;28;20234;-81
2021/06/30 11:10:16;;;;;;;11.32;6.95;;;18.40;94.90;;;;;;4979314;28;20517;-81
2021/06/30 11:12:52;;;;;;;11.00;5.15;;;18.50;94.80;;;;;;4979239;28;20383;-81
2021/06/30 11:15:36;;;;;;;11.63;5.80;;;18.50;94.80;;;;;;4978737;28;20030;-81
2021/06/30 11:18:08;;;;;;;6.65;5.22;;;18.50;94.90;;;;;;4979566;28;20035;-81
2021/06/30 11:20:45;;;;;;;11.85;6.57;;;18.50;94.90;;;;;;4980744;28;20137;-80
2021/06/30 11:23:20;;;;;;;9.73;5.85;;;18.50;95.00;;;;;;4980257;28;20026;-80
2021/06/30 11:25:47;;;;;;;6.75;5.65;;;18.50;94.90;;;;;;4980987;28;20034;-79
2021/06/30 11:28:34;;;;;;;10.52;6.50;;;18.60;95.00;;;;;;4979806;28;20069;-80
2021/06/30 11:31:00;;;;;;;;;;;18.60;95.10;;;;;;4980034;28;20498;-80
2021/06/30 11:33:26;;;;;;;11.55;6.47;;;18.60;95.20;;;;;;4980411;28;19910;-81
2021/06/30 11:35:52;;;;;;;10.35;5.70;;;18.60;95.30;;;;;;4994256;28;20046;-82
2021/06/30 11:38:27;;;;;;;10.73;5.65;;;18.60;95.20;;;;;;4979436;28;20502;-82
2021/06/30 11:41:02;;;;;;;10.10;6.65;;;18.60;95.10;;;;;;4979293;28;20035;-82
2021/06/30 11:43:40;;;;;;;8.15;6.22;;;18.70;95.20;;;;;;4979910;28;20618;-80
2021/06/30 11:46:06;;;;;;;12.48;7.30;;;18.80;95.20;;;;;;4980032;28;20022;-79
2021/06/30 11:48:35;;;;;;;11.73;7.45;;;18.80;95.20;;;;;;4979890;28;20023;-79
2021/06/30 11:51:02;;;;;;;10.60;7.93;;;18.80;95.20;;;;;;4978835;28;20026;-81
2021/06/30 11:53:36;;;;;;;12.50;9.00;;;18.80;95.10;;;;;;4979831;28;20022;-80
2021/06/30 11:56:03;;;;;;;11.77;8.65;;;18.90;95.00;;;;;;4978974;28;20046;-80
2021/06/30 11:58:48;;;;;;;12.70;9.80;;;18.90;94.90;;;;;;4985253;28;20161;-80
2021/06/30 12:01:25;;;;;;;13.35;10.75;;;19.00;94.80;;;;;;4993689;28;20448;-80
2021/06/30 12:04:30;;;;;;;10.68;9.50;;;19.00;94.90;;;;;;4979309;28;20509;-82
2021/06/30 12:07:04;;;;;;;9.18;8.27;;;19.00;94.80;;;;;;4976904;28;20042;-81
2021/06/30 12:09:34;;;;;;;12.02;9.75;;;19.00;95.00;;;;;;4978288;28;20030;-83
2021/06/30 12:12:17;;;;;;;12.05;9.73;;;18.90;95.00;;;;;;4979671;28;20118;-81
2021/06/30 12:14:49;;;;;;;11.75;10.27;;;18.80;95.10;;;;;;4980063;28;20073;-78
2021/06/30 12:17:19;;;;;;;13.48;9.25;;;18.80;95.00;;;;;;4979007;28;20023;-80
2021/06/30 12:19:50;;;;;;;12.60;9.23;;;18.80;95.00;;;;;;4981431;28;20478;-80
2021/06/30 12:22:39;;;;;;;10.40;9.25;;;18.80;94.90;;;;;;4978240;28;20038;-80
2021/06/30 12:25:16;;;;;;;12.23;9.80;;;18.80;95.10;;;;;;4979452;28;20089;-80
2021/06/30 12:27:52;;;;;;;11.52;9.15;;;18.90;95.10;;;;;;4981088;28;20032;-80
2021/06/30 12:30:29;;;;;;;11.40;9.32;;;19.00;95.10;;;;;;4982405;28;20109;-78
2021/06/30 12:33:03;;;;;;;12.20;9.95;;;19.10;95.00;;;;;;4981349;28;20037;-76
2021/06/30 12:35:34;;;;;;;11.50;8.80;;;19.20;94.80;;;;;;4983695;28;20019;-80
2021/06/30 12:38:07;;;;;;;15.10;10.40;;;19.30;94.80;;;;;;4981857;28;20270;-80
2021/06/30 12:40:33;;;;;;;13.20;9.93;;;19.30;94.70;;;;;;4987045;28;20019;-80
2021/06/30 12:43:16;;;;;;;12.57;9.00;;;19.30;94.60;;;;;;4983187;28;20039;-80
2021/06/30 12:45:45;;;;;;;9.80;8.70;;;19.40;94.70;;;;;;4979337;28;20084;-77